createdAt,value
2022-10-10T00:01:37.416Z,9.50
2022-10-10T00:04:06.826Z,9.50
2022-10-10T00:06:35.830Z,9.40
2022-10-10T00:09:07.000Z,9.40
2022-10-10T00:11:36.288Z,9.30
2022-10-10T00:14:04.865Z,9.30
2022-10-10T00:16:33.033Z,9.30
2022-10-10T00:19:01.237Z,9.30
2022-10-10T00:21:29.468Z,9.30
2022-10-10T00:23:57.661Z,9.30
2022-10-10T00:26:27.170Z,9.30
2022-10-10T00:28:55.358Z,9.20
2022-10-10T00:31:23.589Z,9.20
2022-10-10T00:33:52.211Z,9.20
2022-10-10T00:36:21.393Z,9.20
2022-10-10T00:38:49.816Z,9.30
2022-10-10T00:41:18.143Z,9.20
2022-10-10T00:44:07.043Z,9.30
2022-10-10T00:46:35.430Z,9.30
2022-10-10T00:49:07.738Z,9.30
2022-10-10T00:51:35.865Z,9.30
2022-10-10T00:54:08.646Z,9.30
2022-10-10T00:56:44.923Z,9.30
2022-10-10T00:59:16.352Z,9.30
2022-10-10T01:01:44.738Z,9.30
2022-10-10T01:04:33.460Z,9.40
2022-10-10T01:07:04.020Z,9.40
2022-10-10T01:09:34.040Z,9.40
2022-10-10T01:12:16.582Z,9.40
2022-10-10T01:14:56.288Z,9.40
2022-10-10T01:17:33.853Z,9.40
2022-10-10T01:20:45.705Z,9.40
2022-10-10T01:23:58.832Z,9.40
2022-10-10T01:27:13.459Z,9.40
2022-10-10T01:29:48.753Z,9.40
2022-10-10T01:32:24.899Z,9.40
2022-10-10T01:35:15.899Z,9.40
2022-10-10T01:37:54.880Z,9.40
2022-10-10T01:40:32.828Z,9.40
2022-10-10T01:43:05.489Z,9.40
2022-10-10T01:45:35.442Z,9.40
2022-10-10T01:48:07.075Z,9.40
2022-10-10T01:50:52.485Z,9.30
2022-10-10T01:53:28.723Z,9.30
2022-10-10T01:56:07.060Z,9.30
2022-10-10T01:58:52.114Z,9.30
2022-10-10T02:01:28.359Z,9.30
2022-10-10T02:04:07.515Z,9.30
2022-10-10T02:06:43.448Z,9.30
2022-10-10T02:09:18.350Z,9.30
2022-10-10T02:11:48.956Z,9.30
2022-10-10T02:14:23.033Z,9.20
2022-10-10T02:16:56.580Z,9.20
2022-10-10T02:19:27.647Z,9.20
2022-10-10T02:21:57.316Z,9.20
2022-10-10T02:24:26.405Z,9.10
2022-10-10T02:27:02.024Z,9.10
2022-10-10T02:29:35.132Z,9.10
2022-10-10T02:32:12.053Z,9.10
2022-10-10T02:34:46.101Z,9.10
2022-10-10T02:37:17.255Z,9.00
2022-10-10T02:39:51.080Z,9.00
2022-10-10T02:42:22.667Z,9.00
2022-10-10T02:44:51.685Z,9.00
2022-10-10T02:47:21.248Z,9.00
2022-10-10T02:49:49.769Z,9.00
2022-10-10T02:52:18.910Z,9.00
2022-10-10T02:54:47.045Z,9.00
2022-10-10T02:57:15.337Z,8.90
2022-10-10T02:59:43.777Z,8.90
2022-10-10T03:02:12.397Z,8.90
2022-10-10T03:04:42.106Z,8.90
2022-10-10T03:07:10.424Z,8.90
2022-10-10T03:09:38.572Z,8.90
2022-10-10T03:12:07.013Z,8.80
2022-10-10T03:14:35.438Z,8.80
2022-10-10T03:17:03.616Z,8.80
2022-10-10T03:19:31.680Z,8.80
2022-10-10T03:22:01.164Z,8.80
2022-10-10T03:24:29.657Z,8.80
2022-10-10T03:26:57.776Z,8.80
2022-10-10T03:29:25.850Z,8.70
2022-10-10T03:31:53.942Z,8.70
2022-10-10T03:34:22.076Z,8.70
2022-10-10T03:36:50.166Z,8.70
2022-10-10T03:39:19.860Z,8.70
2022-10-10T03:41:50.271Z,8.70
2022-10-10T03:44:18.618Z,8.70
2022-10-10T03:46:46.900Z,8.80
2022-10-10T03:49:15.324Z,8.80
2022-10-10T03:51:43.538Z,8.80
2022-10-10T03:54:11.673Z,8.80
2022-10-10T03:56:41.132Z,8.80
2022-10-10T03:59:09.248Z,8.80
2022-10-10T04:01:37.495Z,8.80
2022-10-10T04:04:06.047Z,8.80
2022-10-10T04:06:34.216Z,8.80
2022-10-10T04:09:02.333Z,8.80
2022-10-10T04:11:30.396Z,8.80
2022-10-10T04:13:59.837Z,8.80
2022-10-10T04:16:27.932Z,8.80
2022-10-10T04:18:56.014Z,8.80
2022-10-10T04:21:24.140Z,8.80
2022-10-10T04:23:52.285Z,8.80
2022-10-10T04:26:20.428Z,8.80
2022-10-10T04:28:48.566Z,8.80
2022-10-10T04:31:18.063Z,8.80
2022-10-10T04:33:46.136Z,8.70
2022-10-10T04:36:14.335Z,8.70
2022-10-10T04:38:43.217Z,8.70
2022-10-10T04:41:11.472Z,8.70
2022-10-10T04:43:39.634Z,8.70
2022-10-10T04:46:07.795Z,8.70
2022-10-10T04:48:38.689Z,8.70
2022-10-10T04:51:07.237Z,8.70
2022-10-10T04:53:35.424Z,8.70
2022-10-10T04:56:03.948Z,8.70
2022-10-10T04:58:32.033Z,8.70
2022-10-10T05:01:00.241Z,8.60
2022-10-10T05:03:29.355Z,8.60
2022-10-10T05:05:58.819Z,8.60
2022-10-10T05:08:26.965Z,8.60
2022-10-10T05:10:55.062Z,8.60
2022-10-10T05:13:23.203Z,8.60
2022-10-10T05:15:53.170Z,8.60
2022-10-10T05:18:21.849Z,8.60
2022-10-10T05:20:50.231Z,8.70
2022-10-10T05:23:19.761Z,8.70
2022-10-10T05:25:51.032Z,8.70
2022-10-10T05:28:19.796Z,8.70
2022-10-10T05:30:47.955Z,8.70
2022-10-10T05:33:16.070Z,8.80
2022-10-10T05:35:44.272Z,8.80
2022-10-10T05:38:12.531Z,8.80
2022-10-10T05:40:43.012Z,8.90
2022-10-10T05:43:11.755Z,8.90
2022-10-10T05:45:39.845Z,8.90
2022-10-10T05:48:07.913Z,9.00
2022-10-10T05:50:40.587Z,9.00
2022-10-10T05:53:08.708Z,9.10
2022-10-10T05:55:36.835Z,9.10
2022-10-10T05:58:06.934Z,9.20
2022-10-10T06:00:36.481Z,9.20
2022-10-10T06:03:05.034Z,9.30
2022-10-10T06:05:33.196Z,9.30
2022-10-10T06:08:09.297Z,9.40
2022-10-10T06:10:41.379Z,9.40
2022-10-10T06:13:11.552Z,9.50
2022-10-10T06:15:39.906Z,9.50
2022-10-10T06:18:09.025Z,9.60
2022-10-10T06:20:37.848Z,9.60
2022-10-10T06:23:07.889Z,9.70
2022-10-10T06:25:41.826Z,9.70
2022-10-10T06:28:12.457Z,9.80
2022-10-10T06:30:45.104Z,9.80
2022-10-10T06:33:15.070Z,9.90
2022-10-10T06:35:45.308Z,10.00
2022-10-10T06:38:15.454Z,10.10
2022-10-10T06:40:44.977Z,10.20
2022-10-10T06:43:19.207Z,10.40
2022-10-10T06:45:51.787Z,10.40
2022-10-10T06:48:19.995Z,10.60
2022-10-10T06:50:58.624Z,10.70
2022-10-10T06:53:27.763Z,10.80
2022-10-10T06:55:56.608Z,10.90
2022-10-10T06:58:28.687Z,11.00
2022-10-10T07:00:59.899Z,11.10
2022-10-10T07:03:29.837Z,11.20
2022-10-10T07:06:01.260Z,11.20
2022-10-10T07:08:30.597Z,11.30
2022-10-10T07:10:58.777Z,11.40
2022-10-10T07:13:28.195Z,11.40
2022-10-10T07:15:56.498Z,11.50
2022-10-10T07:18:24.813Z,11.60
2022-10-10T07:20:57.301Z,11.70
2022-10-10T07:23:25.684Z,11.70
2022-10-10T07:25:59.265Z,11.80
2022-10-10T07:28:29.037Z,11.80
2022-10-10T07:31:02.268Z,11.90
2022-10-10T07:33:33.998Z,11.90
2022-10-10T07:36:02.108Z,12.00
2022-10-10T07:38:30.207Z,12.10
2022-10-10T07:40:58.623Z,12.20
2022-10-10T07:43:28.183Z,12.30
2022-10-10T07:45:58.483Z,12.40
2022-10-10T07:48:26.788Z,12.50
2022-10-10T07:50:54.911Z,12.50
2022-10-10T07:53:23.012Z,12.60
2022-10-10T07:55:51.291Z,12.70
2022-10-10T07:58:19.473Z,12.80
2022-10-10T08:00:48.875Z,12.90
2022-10-10T08:03:17.240Z,13.00
2022-10-10T08:05:46.928Z,13.10
2022-10-10T08:08:15.107Z,13.10
2022-10-10T08:10:45.361Z,13.20
2022-10-10T08:13:13.571Z,13.20
2022-10-10T08:15:42.131Z,13.30
2022-10-10T08:18:11.607Z,13.40
2022-10-10T08:20:40.142Z,13.50
2022-10-10T08:23:08.251Z,13.50
2022-10-10T08:25:36.738Z,13.50
2022-10-10T08:28:05.685Z,13.50
2022-10-10T08:30:33.912Z,13.50
2022-10-10T08:33:02.458Z,13.40
2022-10-10T08:35:31.890Z,13.40
2022-10-10T08:37:59.925Z,13.50
2022-10-10T08:40:28.774Z,13.50
2022-10-10T08:43:01.577Z,13.50
2022-10-10T08:45:33.814Z,13.60
2022-10-10T08:48:08.163Z,13.70
2022-10-10T08:50:43.738Z,13.80
2022-10-10T08:53:21.306Z,14.00
2022-10-10T08:55:50.632Z,14.10
2022-10-10T08:58:25.138Z,14.30
2022-10-10T09:01:04.139Z,14.50
2022-10-10T09:03:40.236Z,14.80
2022-10-10T09:06:28.045Z,15.00
2022-10-10T09:09:08.905Z,15.10
2022-10-10T09:11:54.212Z,15.30
2022-10-10T09:14:36.613Z,15.50
2022-10-10T09:17:19.352Z,15.70
2022-10-10T09:20:03.687Z,15.90
2022-10-10T09:22:40.860Z,16.00
2022-10-10T09:25:21.833Z,16.20
2022-10-10T09:28:01.813Z,16.40
2022-10-10T09:30:35.258Z,16.60
2022-10-10T09:33:24.643Z,16.90
2022-10-10T09:35:57.590Z,17.10
2022-10-10T09:38:36.323Z,17.20
2022-10-10T09:41:15.449Z,17.30
2022-10-10T09:43:44.104Z,17.40
2022-10-10T09:46:12.355Z,17.50
2022-10-10T09:48:43.043Z,17.50
2022-10-10T09:51:17.424Z,17.50
2022-10-10T09:53:49.923Z,17.60
2022-10-10T09:56:22.154Z,17.70
2022-10-10T09:58:53.258Z,17.70
2022-10-10T10:01:24.275Z,17.80
2022-10-10T10:04:27.790Z,17.90
2022-10-10T10:07:08.838Z,17.90
2022-10-10T10:09:39.601Z,17.90
2022-10-10T10:12:08.013Z,17.90
2022-10-10T10:14:39.508Z,18.00
2022-10-10T10:17:10.952Z,18.00
2022-10-10T10:19:41.788Z,18.00
2022-10-10T10:22:32.747Z,18.00
2022-10-10T10:25:33.129Z,18.20
2022-10-10T10:28:21.773Z,18.20
2022-10-10T10:30:53.239Z,18.30
2022-10-10T10:33:42.105Z,18.20
2022-10-10T10:36:28.394Z,18.20
2022-10-10T10:39:13.193Z,18.50
2022-10-10T10:41:52.639Z,18.60
2022-10-10T10:44:35.932Z,18.60
2022-10-10T10:47:27.464Z,18.60
2022-10-10T10:50:16.906Z,18.80
2022-10-10T10:52:59.142Z,19.20
2022-10-10T10:55:39.471Z,19.50
2022-10-10T11:01:57.017Z,19.80
2022-10-10T11:05:22.282Z,19.90
2022-10-10T11:07:58.532Z,20.10
2022-10-10T11:10:39.603Z,20.40
2022-10-10T11:13:20.404Z,20.70
2022-10-10T11:16:20.327Z,21.00
2022-10-10T11:18:53.675Z,21.50
2022-10-10T11:21:27.836Z,21.90
2022-10-10T11:24:03.708Z,22.10
2022-10-10T11:26:38.170Z,22.20
2022-10-10T11:29:14.551Z,22.20
2022-10-10T11:31:53.355Z,22.30
2022-10-10T11:34:28.342Z,22.40
2022-10-10T11:37:05.956Z,22.40
2022-10-10T11:39:42.851Z,22.30
2022-10-10T11:42:19.783Z,22.40
2022-10-10T11:44:56.906Z,22.50
2022-10-10T11:47:36.637Z,22.60
2022-10-10T11:50:14.690Z,23.00
2022-10-10T11:52:56.891Z,23.30
2022-10-10T11:55:37.480Z,23.30
2022-10-10T11:58:35.403Z,23.20
2022-10-10T12:01:14.548Z,23.00
2022-10-10T12:03:44.447Z,22.90
2022-10-10T12:06:25.144Z,22.90
2022-10-10T12:09:02.752Z,22.80
2022-10-10T12:11:38.643Z,22.80
2022-10-10T12:14:14.568Z,22.90
2022-10-10T12:16:43.109Z,23.00
2022-10-10T12:19:20.559Z,23.00
2022-10-10T12:21:59.471Z,23.10
2022-10-10T12:24:30.287Z,23.30
2022-10-10T12:27:44.396Z,23.60
2022-10-10T12:30:26.268Z,23.70
2022-10-10T12:32:55.517Z,23.90
2022-10-10T12:35:41.892Z,23.80
2022-10-10T12:38:21.236Z,23.60
2022-10-10T12:41:14.435Z,23.70
2022-10-10T12:43:52.356Z,24.10
2022-10-10T12:46:28.536Z,25.30
2022-10-10T12:49:16.997Z,25.90
2022-10-10T12:52:01.082Z,25.70
2022-10-10T12:54:38.328Z,25.40
2022-10-10T12:57:19.656Z,25.20
2022-10-10T12:59:48.359Z,24.80
2022-10-10T13:02:23.177Z,24.50
2022-10-10T13:04:55.251Z,24.20
2022-10-10T13:07:26.829Z,24.00
2022-10-10T13:10:06.272Z,23.80
2022-10-10T13:12:35.379Z,23.70
2022-10-10T13:15:03.644Z,23.60
2022-10-10T13:17:37.932Z,23.40
2022-10-10T13:20:26.770Z,23.40
2022-10-10T13:22:58.121Z,23.30
2022-10-10T13:25:27.224Z,23.20
2022-10-10T13:27:55.675Z,23.10
2022-10-10T13:30:26.529Z,23.00
2022-10-10T13:32:57.023Z,23.10
2022-10-10T13:35:28.517Z,23.30
2022-10-10T13:38:01.985Z,23.50
2022-10-10T13:40:30.367Z,23.60
2022-10-10T13:42:59.029Z,23.60
2022-10-10T13:45:38.993Z,23.50
2022-10-10T13:48:38.188Z,23.50
2022-10-10T13:51:10.915Z,23.40
2022-10-10T13:53:55.125Z,23.30
2022-10-10T13:56:38.185Z,23.20
2022-10-10T13:59:12.945Z,23.20
2022-10-10T14:01:46.687Z,23.10
2022-10-10T14:04:26.623Z,23.10
2022-10-10T14:07:04.273Z,23.10
2022-10-10T14:09:39.155Z,23.30
2022-10-10T14:12:17.737Z,23.60
2022-10-10T14:14:49.399Z,23.90
2022-10-10T14:17:18.122Z,24.10
2022-10-10T14:19:48.849Z,23.90
2022-10-10T14:22:17.434Z,23.80
2022-10-10T14:24:47.319Z,23.70
2022-10-10T14:27:24.426Z,23.80
2022-10-10T14:29:54.164Z,23.70
2022-10-10T14:32:22.997Z,23.70
2022-10-10T14:34:51.408Z,23.80
2022-10-10T14:37:23.917Z,24.00
2022-10-10T14:39:55.372Z,24.10
2022-10-10T14:42:25.804Z,24.40
2022-10-10T14:44:57.081Z,24.90
2022-10-10T14:47:26.604Z,25.50
2022-10-10T14:49:57.496Z,26.50
2022-10-10T14:52:25.764Z,27.50
2022-10-10T14:54:55.200Z,28.40
2022-10-10T14:57:23.383Z,29.10
2022-10-10T14:59:51.522Z,29.70
2022-10-10T15:02:21.912Z,30.10
2022-10-10T15:04:51.072Z,30.40
2022-10-10T15:07:20.058Z,30.60
2022-10-10T15:10:31.600Z,30.80
2022-10-10T15:12:43.758Z,30.80
2022-10-10T15:15:14.496Z,30.90
2022-10-10T15:17:43.497Z,31.00
2022-10-10T15:20:14.482Z,31.00
2022-10-10T15:22:45.926Z,31.00
2022-10-10T15:25:14.112Z,30.80
2022-10-10T15:27:43.500Z,30.40
2022-10-10T15:30:12.406Z,30.20
2022-10-10T15:32:43.367Z,29.90
2022-10-10T15:35:16.833Z,29.20
2022-10-10T15:37:46.318Z,28.20
2022-10-10T15:40:19.639Z,27.40
2022-10-10T15:42:50.199Z,26.70
2022-10-10T15:45:37.375Z,26.00
2022-10-10T15:48:07.100Z,25.30
2022-10-10T15:50:39.138Z,24.80
2022-10-10T15:53:07.278Z,24.20
2022-10-10T15:55:35.658Z,23.70
2022-10-10T15:58:05.297Z,23.30
2022-10-10T16:00:33.862Z,22.90
2022-10-10T16:03:02.145Z,22.50
2022-10-10T16:05:32.303Z,22.20
2022-10-10T16:08:00.826Z,21.80
2022-10-10T16:10:28.931Z,21.50
2022-10-10T16:12:57.190Z,21.20
2022-10-10T16:15:26.684Z,20.90
2022-10-10T16:17:54.908Z,20.60
2022-10-10T16:20:23.040Z,20.30
2022-10-10T16:22:51.305Z,20.00
2022-10-10T16:25:22.587Z,19.80
2022-10-10T16:27:52.570Z,19.50
2022-10-10T16:30:21.374Z,19.30
2022-10-10T16:32:51.386Z,19.10
2022-10-10T16:35:19.540Z,18.80
2022-10-10T16:37:47.946Z,18.60
2022-10-10T16:40:16.700Z,18.40
2022-10-10T16:42:45.035Z,18.20
2022-10-10T16:45:13.666Z,18.00
2022-10-10T16:47:41.833Z,17.80
2022-10-10T16:50:12.259Z,17.60
2022-10-10T16:52:40.454Z,17.40
2022-10-10T16:55:11.192Z,17.30
2022-10-10T16:57:40.169Z,17.10
2022-10-10T17:00:11.147Z,17.00
2022-10-10T17:02:42.168Z,16.80
2022-10-10T17:05:11.916Z,16.60
2022-10-10T17:07:40.083Z,16.50
2022-10-10T17:10:09.565Z,16.40
2022-10-10T17:12:37.718Z,16.30
2022-10-10T17:15:07.807Z,16.20
2022-10-10T17:17:36.883Z,16.00
2022-10-10T17:20:07.112Z,15.90
2022-10-10T17:22:37.330Z,15.80
2022-10-10T17:25:06.729Z,15.70
2022-10-10T17:27:35.863Z,15.60
2022-10-10T17:30:05.329Z,15.50
2022-10-10T17:32:33.563Z,15.40
2022-10-10T17:35:01.694Z,15.30
2022-10-10T17:37:29.943Z,15.20
2022-10-10T17:39:59.532Z,15.10
2022-10-10T17:42:27.697Z,15.00
2022-10-10T17:44:59.205Z,14.90
2022-10-10T17:47:27.700Z,14.90
2022-10-10T17:49:55.860Z,14.80
2022-10-10T17:52:24.836Z,14.70
2022-10-10T17:54:53.049Z,14.60
2022-10-10T17:57:22.613Z,14.50
2022-10-10T17:59:50.783Z,14.40
2022-10-10T18:02:20.115Z,14.30
2022-10-10T18:04:48.304Z,14.20
2022-10-10T18:07:18.497Z,14.20
2022-10-10T18:09:47.444Z,14.10
2022-10-10T18:12:15.669Z,14.00
2022-10-10T18:14:45.695Z,14.00
2022-10-10T18:17:16.021Z,13.90
2022-10-10T18:19:44.424Z,13.80
2022-10-10T18:22:12.699Z,13.80
2022-10-10T18:24:41.065Z,13.70
2022-10-10T18:27:09.261Z,13.60
2022-10-10T18:29:38.180Z,13.60
2022-10-10T18:32:07.997Z,13.50
2022-10-10T18:34:36.373Z,13.40
2022-10-10T18:37:06.504Z,13.40
2022-10-10T18:39:35.921Z,13.30
2022-10-10T18:42:04.528Z,13.30
2022-10-10T18:44:32.614Z,13.30
2022-10-10T18:47:02.837Z,13.20
2022-10-10T18:49:35.139Z,13.10
2022-10-10T18:52:03.878Z,13.10
2022-10-10T18:54:33.169Z,13.00
2022-10-10T18:57:02.515Z,13.00
2022-10-10T18:59:32.026Z,12.90
2022-10-10T19:02:00.507Z,12.90
2022-10-10T19:04:28.876Z,12.90
2022-10-10T19:06:58.502Z,12.80
2022-10-10T19:09:26.884Z,12.80
2022-10-10T19:11:55.414Z,12.80
2022-10-10T19:14:23.591Z,12.80
2022-10-10T19:16:51.884Z,12.80
2022-10-10T19:19:20.814Z,12.80
2022-10-10T19:21:50.487Z,12.80
2022-10-10T19:24:21.386Z,12.80
2022-10-10T19:26:57.160Z,12.80
2022-10-10T19:29:27.574Z,12.70
2022-10-10T19:31:56.917Z,12.70
2022-10-10T19:34:25.581Z,12.70
2022-10-10T19:36:54.515Z,12.60
2022-10-10T19:39:24.068Z,12.60
2022-10-10T19:41:52.440Z,12.60
2022-10-10T19:44:20.785Z,12.50
2022-10-10T19:46:48.942Z,12.50
2022-10-10T19:49:17.061Z,12.50
2022-10-10T19:51:45.317Z,12.50
2022-10-10T19:54:13.474Z,12.40
2022-10-10T19:56:42.944Z,12.40
2022-10-10T19:59:11.079Z,12.40
2022-10-10T20:01:39.259Z,12.40
2022-10-10T20:04:07.417Z,12.30
2022-10-10T20:06:35.717Z,12.30
2022-10-10T20:09:08.361Z,12.20
2022-10-10T20:11:39.641Z,12.20
2022-10-10T20:14:10.585Z,12.20
2022-10-10T20:16:39.023Z,12.10
2022-10-10T20:19:07.329Z,12.10
2022-10-10T20:21:36.220Z,12.10
2022-10-10T20:24:09.403Z,12.00
2022-10-10T20:26:38.464Z,12.00
2022-10-10T20:29:08.863Z,11.90
2022-10-10T20:31:38.646Z,11.90
2022-10-10T20:34:07.758Z,11.90
2022-10-10T20:36:36.435Z,11.80
2022-10-10T20:39:08.483Z,11.80
2022-10-10T20:41:39.374Z,11.80
2022-10-10T20:44:12.658Z,11.70
2022-10-10T20:46:48.691Z,11.70
2022-10-10T20:49:19.732Z,11.70
2022-10-10T20:51:50.876Z,11.60
2022-10-10T20:54:21.313Z,11.60
2022-10-10T20:56:50.144Z,11.60
2022-10-10T20:59:20.852Z,11.50
2022-10-10T21:01:49.115Z,11.50
2022-10-10T21:04:17.827Z,11.50
2022-10-10T21:06:46.327Z,11.60
2022-10-10T21:09:16.560Z,11.60
2022-10-10T21:11:48.717Z,11.60
2022-10-10T21:14:21.018Z,11.70
2022-10-10T21:16:50.511Z,11.70
2022-10-10T21:19:18.597Z,11.70
2022-10-10T21:21:46.913Z,11.70
2022-10-10T21:24:15.126Z,11.70
2022-10-10T21:26:45.331Z,11.70
2022-10-10T21:29:13.471Z,11.70
2022-10-10T21:31:43.312Z,11.70
2022-10-10T21:34:15.633Z,11.70
2022-10-10T21:36:43.821Z,11.70
2022-10-10T21:39:12.737Z,11.70
2022-10-10T21:41:41.412Z,11.70
2022-10-10T21:44:11.438Z,11.80
2022-10-10T21:46:39.544Z,11.80
2022-10-10T21:49:12.085Z,11.90
2022-10-10T21:51:42.953Z,11.90
2022-10-10T21:54:11.435Z,12.00
2022-10-10T21:56:40.395Z,12.00
2022-10-10T21:59:09.973Z,12.10
2022-10-10T22:01:38.333Z,12.10
2022-10-10T22:04:08.276Z,12.20
2022-10-10T22:06:36.634Z,12.20
2022-10-10T22:09:07.212Z,12.30
2022-10-10T22:11:35.836Z,12.30
2022-10-10T22:14:05.405Z,12.40
2022-10-10T22:16:34.648Z,12.50
2022-10-10T22:19:04.183Z,12.50
2022-10-10T22:21:34.964Z,12.60
2022-10-10T22:24:06.979Z,12.60
2022-10-10T22:26:36.095Z,12.70
2022-10-10T22:29:04.577Z,12.80
2022-10-10T22:31:35.729Z,12.80
2022-10-10T22:34:04.247Z,12.80
2022-10-10T22:36:34.505Z,12.90
2022-10-10T22:39:02.676Z,12.90
2022-10-10T22:41:30.731Z,13.00
2022-10-10T22:43:58.883Z,13.00
2022-10-10T22:46:27.089Z,13.10
2022-10-10T22:48:55.241Z,13.10
2022-10-10T22:51:23.326Z,13.10
2022-10-10T22:53:52.901Z,13.20
2022-10-10T22:56:22.551Z,13.20
2022-10-10T22:58:52.297Z,13.20
2022-10-10T23:01:24.426Z,13.30
2022-10-10T23:03:56.141Z,13.30
2022-10-10T23:06:24.475Z,13.30
2022-10-10T23:08:54.786Z,13.40
2022-10-10T23:11:22.919Z,13.40
2022-10-10T23:13:50.981Z,13.40
2022-10-10T23:16:19.100Z,13.50
2022-10-10T23:18:47.306Z,13.50
2022-10-10T23:21:15.463Z,13.50
2022-10-10T23:23:43.581Z,13.50
2022-10-10T23:26:14.828Z,13.60
2022-10-10T23:28:44.756Z,13.60
2022-10-10T23:31:14.328Z,13.60
2022-10-10T23:33:42.648Z,13.60
2022-10-10T23:36:14.496Z,13.70
2022-10-10T23:38:43.803Z,13.70
2022-10-10T23:41:14.427Z,13.70
2022-10-10T23:43:42.773Z,13.70
2022-10-10T23:46:11.224Z,13.70
2022-10-10T23:48:39.586Z,13.70
2022-10-10T23:51:07.949Z,13.80
2022-10-10T23:53:36.413Z,13.80
2022-10-10T23:56:05.069Z,13.80
2022-10-10T23:58:35.001Z,13.80
